Jonni Ritscher — A8JT7 — position and weather

sailwx.info

Track history (hours):
 
Tides and Currents Weather Stations Pressure Air Temp Water Temp Dewpoint Dewpoint Depression Visibility Wind Speed Wind Dir Waves Ship Positions

Jonni Ritscher

Last reported at 2016-Aug-27 14:33 UTC. Time now 2016-Aug-27 15:11 UTC.
Position N 55°29' E 007°23'.

Length 178 m; draft 10.6 m.

Type: Cargo ship. MMSI: 636091136.

Date/timePositionNaut miles runAvg speedWind from/ knotsBaromVisibWave heightAir tempDewpointWater temp
2016-Aug-27 14:33N 55°29' E 007°23'10 9.8
2016-Aug-27 13:33N 55°38' E 007°20'9 9.4
2016-Aug-27 12:33N 55°48' E 007°23'9 9.3
2016-Aug-27 11:33N 55°57' E 007°27'123 8.8
2016-Aug-26 21:32N 57°37' E 009°38'1010.0
2016-Aug-26 20:33N 57°42' E 009°53'1010.1
2016-Aug-26 19:33N 57°48' E 010°09'10 9.5
2016-Aug-26 18:33N 57°50' E 010°27'9 9.3
2016-Aug-26 17:33N 57°49' E 010°44'9 9.0
2016-Aug-26 16:33N 57°43' E 010°57'9 9.4
2016-Aug-26 15:33N 57°37' E 011°09'9 8.8
2016-Aug-26 14:33N 57°31' E 011°21'9 9.0
2016-Aug-26 13:33N 57°23' E 011°30'9 9.4
2016-Aug-26 12:33N 57°14' E 011°36'9 9.4
2016-Aug-26 11:34N 57°05' E 011°41'9 9.2
2016-Aug-26 10:34N 56°56' E 011°47'10 9.6
2016-Aug-26 09:33N 56°47' E 011°53'9 9.0
2016-Aug-26 08:33N 56°39' E 011°51'1010.2
2016-Aug-26 07:33N 56°29' E 011°43'8 8.4
2016-Aug-26 06:33N 56°24' E 011°31'19 9.7
2016-Aug-26 04:33N 56°08' E 011°12'10 9.5
2016-Aug-26 03:33N 55°60' E 011°03'1010.1
2016-Aug-26 02:34N 55°52' E 010°52'9 8.8
2016-Aug-26 01:33N 55°43' E 010°48'16 7.7
2016-Aug-25 23:26N 55°27' E 010°56'7 8.2
2016-Aug-25 22:34N 55°21' E 011°03'10 9.6
2016-Aug-25 21:33N 55°12' E 011°05'8 7.9
2016-Aug-25 20:34N 55°04' E 010°60'7 7.4
2016-Aug-25 19:34N 54°57' E 010°55'9 8.6
2016-Aug-25 18:34N 54°49' E 010°50'9 9.2
2016-Aug-25 17:33N 54°40' E 010°49'1010.2
2016-Aug-25 16:34N 54°36' E 011°05'1110.5
2016-Aug-25 15:34N 54°33' E 011°22'1110.5
2016-Aug-25 14:34N 54°28' E 011°38'10 9.6
2016-Aug-25 13:33N 54°26' E 011°55'10 9.6
2016-Aug-25 12:33N 54°27' E 012°11'10 9.6
2016-Aug-25 11:33N 54°36' E 012°17'1010.1
2016-Aug-25 10:33N 54°42' E 012°32'10 9.7
2016-Aug-25 09:34N 54°47' E 012°46'10 9.5
2016-Aug-25 08:33N 54°51' E 013°01'10 9.8
2016-Aug-25 07:33N 54°54' E 013°17'1010.1
2016-Aug-25 06:33N 54°58' E 013°33'2010.1
2016-Aug-25 04:33N 55°05' E 014°06'9 9.1
2016-Aug-25 03:34N 55°13' E 014°15'9 9.1
2016-Aug-25 02:34N 55°20' E 014°25'9 8.9
2016-Aug-25 01:33N 55°27' E 014°36'9 9.2
2016-Aug-25 00:33N 55°31' E 014°50'9 9.2
2016-Aug-24 23:33N 55°36' E 015°04'9 9.1
2016-Aug-24 22:33N 55°40' E 015°18'9 9.0
2016-Aug-24 21:33N 55°45' E 015°32'9 9.5
2016-Aug-24 20:33N 55°50' E 015°46'9 9.2
2016-Aug-24 19:33N 55°54' E 016°00'10 9.6
2016-Aug-24 18:33N 55°59' E 016°15'8 7.7
2016-Aug-24 17:33N 56°02' E 016°27'10 9.5
2016-Aug-24 16:33N 56°08' E 016°42'9 9.2
2016-Aug-24 15:32N 56°13' E 016°55'9 9.0
2016-Aug-24 14:33N 56°19' E 017°08'9 9.1
2016-Aug-24 13:33N 56°24' E 017°21'9 9.2
2016-Aug-24 12:33N 56°30' E 017°34'11 9.2
2016-Aug-24 11:23N 56°37' E 017°49'10 9.2
2016-Aug-24 10:21N 56°42' E 018°03'233 9.0
2016-Aug-23 08:34N 59°35' E 022°59'9 9.1
2016-Aug-23 07:33N 59°38' E 023°16'9 9.3
2016-Aug-23 06:33N 59°40' E 023°34'9 9.3
2016-Aug-23 05:34N 59°43' E 023°52'1010.3
2016-Aug-23 04:33N 59°46' E 024°12'10 9.3
2016-Aug-23 03:31N 59°48' E 024°30'9 9.3
2016-Aug-23 02:34N 59°49' E 024°48'46 9.1
2016-Aug-22 21:31N 60°02' E 026°16'9 9.0
2016-Aug-22 20:34N 60°07' E 026°30'1010.5
2016-Aug-22 19:33N 60°14' E 026°46'1212.1
2016-Aug-22 18:33N 60°25' E 026°55'0 0.1
2016-Aug-22 17:31N 60°25' E 026°55'0 0.0
2016-Aug-22 16:31N 60°25' E 026°55'0 0.0
2016-Aug-22 15:33N 60°25' E 026°55'0 0.0
2016-Aug-22 14:33N 60°25' E 026°55'0 0.0
2016-Aug-22 13:33N 60°25' E 026°55'0 0.0
2016-Aug-22 12:32N 60°25' E 026°55'0 0.0
2016-Aug-22 11:32N 60°25' E 026°55'0 0.0
2016-Aug-22 10:31N 60°25' E 026°55'0 0.0
2016-Aug-22 09:31N 60°25' E 026°55'0 0.0
2016-Aug-22 08:33N 60°25' E 026°55'0 0.0
2016-Aug-22 07:33N 60°25' E 026°55'0 0.0
2016-Aug-22 06:30N 60°25' E 026°55'0 0.0
2016-Aug-22 05:32N 60°25' E 026°55'0 0.0
2016-Aug-22 04:32N 60°25' E 026°55'0 0.0
2016-Aug-22 03:31N 60°25' E 026°55'0 0.0
2016-Aug-22 02:31N 60°25' E 026°55'0 0.0
2016-Aug-22 01:33N 60°25' E 026°55'0 0.0
2016-Aug-22 00:33N 60°25' E 026°55'0 0.0
2016-Aug-21 23:33N 60°25' E 026°55'0 0.0
2016-Aug-21 22:32N 60°25' E 026°55'0 0.0
2016-Aug-21 21:32N 60°25' E 026°55'0 0.0
2016-Aug-21 20:31N 60°25' E 026°55'0 0.0
2016-Aug-21 19:31N 60°25' E 026°55'0 0.0
2016-Aug-21 18:33N 60°25' E 026°55'0 0.0
2016-Aug-21 17:30N 60°25' E 026°55'0 0.0
2016-Aug-21 16:33N 60°25' E 026°55'0 0.0
2016-Aug-21 15:32N 60°25' E 026°55'0 0.0
2016-Aug-21 14:32N 60°25' E 026°55'0 0.0
2016-Aug-21 13:31N 60°25' E 026°55'0 0.0
2016-Aug-21 12:31N 60°25' E 026°55'0 0.0
2016-Aug-21 11:33N 60°25' E 026°55'0 0.0
2016-Aug-21 10:33N 60°25' E 026°55'0 0.0
2016-Aug-21 09:32N 60°25' E 026°55'0 0.0
2016-Aug-21 08:32N 60°25' E 026°55'0 0.0
2016-Aug-21 07:32N 60°25' E 026°55'0 0.0
2016-Aug-21 06:31N 60°25' E 026°55'0 0.0
2016-Aug-21 05:31N 60°25' E 026°55'0 0.0
2016-Aug-21 04:33N 60°25' E 026°55'0 0.0
2016-Aug-21 03:33N 60°25' E 026°55'0 0.0
2016-Aug-21 02:29N 60°25' E 026°55'0 0.0
2016-Aug-21 01:32N 60°25' E 026°55'0 0.0
2016-Aug-21 00:32N 60°25' E 026°55'0 0.0
2016-Aug-20 23:31N 60°25' E 026°55'0 0.0
2016-Aug-20 22:31N 60°25' E 026°55'0 0.0
2016-Aug-20 21:33N 60°25' E 026°55'0 0.0
2016-Aug-20 20:33N 60°25' E 026°55'0 0.0
2016-Aug-20 19:32N 60°25' E 026°55'0 0.0
2016-Aug-20 18:29N 60°25' E 026°55'0 0.0
2016-Aug-20 17:32N 60°25' E 026°55'0 0.0
2016-Aug-20 16:31N 60°25' E 026°55'0 0.0
2016-Aug-20 15:31N 60°25' E 026°55'0 0.0
2016-Aug-20 14:33N 60°25' E 026°55'0 0.0
2016-Aug-20 13:33N 60°25' E 026°55'0 0.0
2016-Aug-20 12:32N 60°25' E 026°55'0 0.0
2016-Aug-20 11:32N 60°25' E 026°55'0 0.0
2016-Aug-20 10:32N 60°25' E 026°55'0 0.0
2016-Aug-20 09:31N 60°25' E 026°55'0 0.0
2016-Aug-20 08:31N 60°25' E 026°55'0 0.5
2016-Aug-20 07:34N 60°25' E 026°54'1514.6
2016-Aug-20 06:33N 60°16' E 026°30'1211.6
2016-Aug-20 05:33N 60°07' E 026°16'4310.8
2016-Aug-20 01:33N 59°47' E 024°60'2110.5
2016-Aug-19 23:33N 59°43' E 024°19'1110.8
2016-Aug-19 22:33N 59°40' E 023°58'1110.9
2016-Aug-19 21:33N 59°36' E 023°38'1111.0
2016-Aug-19 20:32N 59°33' E 023°17'2310.8
2016-Aug-19 18:22N 59°24' E 022°34'316 9.6
2016-Aug-18 09:33N 55°41' E 015°37'1110.1
2016-Aug-18 08:27N 55°36' E 015°20'9 9.9
2016-Aug-18 07:33N 55°32' E 015°06'1010.1
2016-Aug-18 06:33N 55°27' E 014°50'10 9.7
2016-Aug-18 05:34N 55°21' E 014°36'1010.3
2016-Aug-18 04:33N 55°13' E 014°25'9 9.4
2016-Aug-18 03:34N 55°06' E 014°14'9 8.8
2016-Aug-18 02:33N 55°00' E 014°03'9 9.3
2016-Aug-18 01:33N 54°57' E 013°47'10 9.4
2016-Aug-18 00:32N 54°54' E 013°31'14 9.4
2016-Aug-17 23:04N 54°50' E 013°09'510.0
2016-Aug-17 22:33N 54°48' E 013°00'10 9.8
2016-Aug-17 21:33N 54°45' E 012°44'10 9.9
2016-Aug-17 20:33N 54°40' E 012°30'10 9.7
2016-Aug-17 19:33N 54°34' E 012°17'9 9.4
2016-Aug-17 18:33N 54°25' E 012°10'1010.0
2016-Aug-17 17:33N 54°25' E 011°53'1010.0
2016-Aug-17 16:33N 54°27' E 011°36'1010.2
2016-Aug-17 15:33N 54°32' E 011°21'1010.1
2016-Aug-17 14:33N 54°37' E 011°05'  
Track history (hours):
 
Tides and Currents Weather Stations Pressure Air Temp Water Temp Dewpoint Dewpoint Depression Visibility Wind Speed Wind Dir Waves Ship Positions

Jonni Ritscher

Last reported at 2016-Aug-27 14:33 UTC. Time now 2016-Aug-27 15:11 UTC.
Position N 55°29' E 007°23'.

Length 178 m; draft 10.6 m.

Type: Cargo ship. MMSI: 636091136.

Date/timePositionNaut miles runAvg speedWind from/ knotsBaromVisibWave heightAir tempDewpointWater temp
2016-Aug-27 14:33N 55°29' E 007°23'10 9.8
2016-Aug-27 13:33N 55°38' E 007°20'9 9.4
2016-Aug-27 12:33N 55°48' E 007°23'9 9.3
2016-Aug-27 11:33N 55°57' E 007°27'123 8.8
2016-Aug-26 21:32N 57°37' E 009°38'1010.0
2016-Aug-26 20:33N 57°42' E 009°53'1010.1
2016-Aug-26 19:33N 57°48' E 010°09'10 9.5
2016-Aug-26 18:33N 57°50' E 010°27'9 9.3
2016-Aug-26 17:33N 57°49' E 010°44'9 9.0
2016-Aug-26 16:33N 57°43' E 010°57'9 9.4
2016-Aug-26 15:33N 57°37' E 011°09'9 8.8
2016-Aug-26 14:33N 57°31' E 011°21'9 9.0
2016-Aug-26 13:33N 57°23' E 011°30'9 9.4
2016-Aug-26 12:33N 57°14' E 011°36'9 9.4
2016-Aug-26 11:34N 57°05' E 011°41'9 9.2
2016-Aug-26 10:34N 56°56' E 011°47'10 9.6
2016-Aug-26 09:33N 56°47' E 011°53'9 9.0
2016-Aug-26 08:33N 56°39' E 011°51'1010.2
2016-Aug-26 07:33N 56°29' E 011°43'8 8.4
2016-Aug-26 06:33N 56°24' E 011°31'19 9.7
2016-Aug-26 04:33N 56°08' E 011°12'10 9.5
2016-Aug-26 03:33N 55°60' E 011°03'1010.1
2016-Aug-26 02:34N 55°52' E 010°52'9 8.8
2016-Aug-26 01:33N 55°43' E 010°48'16 7.7
2016-Aug-25 23:26N 55°27' E 010°56'7 8.2
2016-Aug-25 22:34N 55°21' E 011°03'10 9.6
2016-Aug-25 21:33N 55°12' E 011°05'8 7.9
2016-Aug-25 20:34N 55°04' E 010°60'7 7.4
2016-Aug-25 19:34N 54°57' E 010°55'9 8.6
2016-Aug-25 18:34N 54°49' E 010°50'9 9.2
2016-Aug-25 17:33N 54°40' E 010°49'1010.2
2016-Aug-25 16:34N 54°36' E 011°05'1110.5
2016-Aug-25 15:34N 54°33' E 011°22'1110.5
2016-Aug-25 14:34N 54°28' E 011°38'10 9.6
2016-Aug-25 13:33N 54°26' E 011°55'10 9.6
2016-Aug-25 12:33N 54°27' E 012°11'10 9.6
2016-Aug-25 11:33N 54°36' E 012°17'1010.1
2016-Aug-25 10:33N 54°42' E 012°32'10 9.7
2016-Aug-25 09:34N 54°47' E 012°46'10 9.5
2016-Aug-25 08:33N 54°51' E 013°01'10 9.8
2016-Aug-25 07:33N 54°54' E 013°17'1010.1
2016-Aug-25 06:33N 54°58' E 013°33'2010.1
2016-Aug-25 04:33N 55°05' E 014°06'9 9.1
2016-Aug-25 03:34N 55°13' E 014°15'9 9.1
2016-Aug-25 02:34N 55°20' E 014°25'9 8.9
2016-Aug-25 01:33N 55°27' E 014°36'9 9.2
2016-Aug-25 00:33N 55°31' E 014°50'9 9.2
2016-Aug-24 23:33N 55°36' E 015°04'9 9.1
2016-Aug-24 22:33N 55°40' E 015°18'9 9.0
2016-Aug-24 21:33N 55°45' E 015°32'9 9.5
2016-Aug-24 20:33N 55°50' E 015°46'9 9.2
2016-Aug-24 19:33N 55°54' E 016°00'10 9.6
2016-Aug-24 18:33N 55°59' E 016°15'8 7.7
2016-Aug-24 17:33N 56°02' E 016°27'10 9.5
2016-Aug-24 16:33N 56°08' E 016°42'9 9.2
2016-Aug-24 15:32N 56°13' E 016°55'9 9.0
2016-Aug-24 14:33N 56°19' E 017°08'9 9.1
2016-Aug-24 13:33N 56°24' E 017°21'9 9.2
2016-Aug-24 12:33N 56°30' E 017°34'11 9.2
2016-Aug-24 11:23N 56°37' E 017°49'10 9.2
2016-Aug-24 10:21N 56°42' E 018°03'233 9.0
2016-Aug-23 08:34N 59°35' E 022°59'9 9.1
2016-Aug-23 07:33N 59°38' E 023°16'9 9.3
2016-Aug-23 06:33N 59°40' E 023°34'9 9.3
2016-Aug-23 05:34N 59°43' E 023°52'1010.3
2016-Aug-23 04:33N 59°46' E 024°12'10 9.3
2016-Aug-23 03:31N 59°48' E 024°30'9 9.3
2016-Aug-23 02:34N 59°49' E 024°48'46 9.1
2016-Aug-22 21:31N 60°02' E 026°16'9 9.0
2016-Aug-22 20:34N 60°07' E 026°30'1010.5
2016-Aug-22 19:33N 60°14' E 026°46'1212.1
2016-Aug-22 18:33N 60°25' E 026°55'0 0.1
2016-Aug-22 17:31N 60°25' E 026°55'0 0.0
2016-Aug-22 16:31N 60°25' E 026°55'0 0.0
2016-Aug-22 15:33N 60°25' E 026°55'0 0.0
2016-Aug-22 14:33N 60°25' E 026°55'0 0.0
2016-Aug-22 13:33N 60°25' E 026°55'0 0.0
2016-Aug-22 12:32N 60°25' E 026°55'0 0.0
2016-Aug-22 11:32N 60°25' E 026°55'0 0.0
2016-Aug-22 10:31N 60°25' E 026°55'0 0.0
2016-Aug-22 09:31N 60°25' E 026°55'0 0.0
2016-Aug-22 08:33N 60°25' E 026°55'0 0.0
2016-Aug-22 07:33N 60°25' E 026°55'0 0.0
2016-Aug-22 06:30N 60°25' E 026°55'0 0.0
2016-Aug-22 05:32N 60°25' E 026°55'0 0.0
2016-Aug-22 04:32N 60°25' E 026°55'0 0.0
2016-Aug-22 03:31N 60°25' E 026°55'0 0.0
2016-Aug-22 02:31N 60°25' E 026°55'0 0.0
2016-Aug-22 01:33N 60°25' E 026°55'0 0.0
2016-Aug-22 00:33N 60°25' E 026°55'0 0.0
2016-Aug-21 23:33N 60°25' E 026°55'0 0.0
2016-Aug-21 22:32N 60°25' E 026°55'0 0.0
2016-Aug-21 21:32N 60°25' E 026°55'0 0.0
2016-Aug-21 20:31N 60°25' E 026°55'0 0.0
2016-Aug-21 19:31N 60°25' E 026°55'0 0.0
2016-Aug-21 18:33N 60°25' E 026°55'0 0.0
2016-Aug-21 17:30N 60°25' E 026°55'0 0.0
2016-Aug-21 16:33N 60°25' E 026°55'0 0.0
2016-Aug-21 15:32N 60°25' E 026°55'0 0.0
2016-Aug-21 14:32N 60°25' E 026°55'0 0.0
2016-Aug-21 13:31N 60°25' E 026°55'0 0.0
2016-Aug-21 12:31N 60°25' E 026°55'0 0.0
2016-Aug-21 11:33N 60°25' E 026°55'0 0.0
2016-Aug-21 10:33N 60°25' E 026°55'0 0.0
2016-Aug-21 09:32N 60°25' E 026°55'0 0.0
2016-Aug-21 08:32N 60°25' E 026°55'0 0.0
2016-Aug-21 07:32N 60°25' E 026°55'0 0.0
2016-Aug-21 06:31N 60°25' E 026°55'0 0.0
2016-Aug-21 05:31N 60°25' E 026°55'0 0.0
2016-Aug-21 04:33N 60°25' E 026°55'0 0.0
2016-Aug-21 03:33N 60°25' E 026°55'0 0.0
2016-Aug-21 02:29N 60°25' E 026°55'0 0.0
2016-Aug-21 01:32N 60°25' E 026°55'0 0.0
2016-Aug-21 00:32N 60°25' E 026°55'0 0.0
2016-Aug-20 23:31N 60°25' E 026°55'0 0.0
2016-Aug-20 22:31N 60°25' E 026°55'0 0.0
2016-Aug-20 21:33N 60°25' E 026°55'0 0.0
2016-Aug-20 20:33N 60°25' E 026°55'0 0.0
2016-Aug-20 19:32N 60°25' E 026°55'0 0.0
2016-Aug-20 18:29N 60°25' E 026°55'0 0.0
2016-Aug-20 17:32N 60°25' E 026°55'0 0.0
2016-Aug-20 16:31N 60°25' E 026°55'0 0.0
2016-Aug-20 15:31N 60°25' E 026°55'0 0.0
2016-Aug-20 14:33N 60°25' E 026°55'0 0.0
2016-Aug-20 13:33N 60°25' E 026°55'0 0.0
2016-Aug-20 12:32N 60°25' E 026°55'0 0.0
2016-Aug-20 11:32N 60°25' E 026°55'0 0.0
2016-Aug-20 10:32N 60°25' E 026°55'0 0.0
2016-Aug-20 09:31N 60°25' E 026°55'0 0.0
2016-Aug-20 08:31N 60°25' E 026°55'0 0.5
2016-Aug-20 07:34N 60°25' E 026°54'1514.6
2016-Aug-20 06:33N 60°16' E 026°30'1211.6
2016-Aug-20 05:33N 60°07' E 026°16'4310.8
2016-Aug-20 01:33N 59°47' E 024°60'2110.5
2016-Aug-19 23:33N 59°43' E 024°19'1110.8
2016-Aug-19 22:33N 59°40' E 023°58'1110.9
2016-Aug-19 21:33N 59°36' E 023°38'1111.0
2016-Aug-19 20:32N 59°33' E 023°17'2310.8
2016-Aug-19 18:22N 59°24' E 022°34'316 9.6
2016-Aug-18 09:33N 55°41' E 015°37'1110.1
2016-Aug-18 08:27N 55°36' E 015°20'9 9.9
2016-Aug-18 07:33N 55°32' E 015°06'1010.1
2016-Aug-18 06:33N 55°27' E 014°50'10 9.7
2016-Aug-18 05:34N 55°21' E 014°36'1010.3
2016-Aug-18 04:33N 55°13' E 014°25'9 9.4
2016-Aug-18 03:34N 55°06' E 014°14'9 8.8
2016-Aug-18 02:33N 55°00' E 014°03'9 9.3
2016-Aug-18 01:33N 54°57' E 013°47'10 9.4
2016-Aug-18 00:32N 54°54' E 013°31'14 9.4
2016-Aug-17 23:04N 54°50' E 013°09'510.0
2016-Aug-17 22:33N 54°48' E 013°00'10 9.8
2016-Aug-17 21:33N 54°45' E 012°44'10 9.9
2016-Aug-17 20:33N 54°40' E 012°30'10 9.7
2016-Aug-17 19:33N 54°34' E 012°17'9 9.4
2016-Aug-17 18:33N 54°25' E 012°10'1010.0
2016-Aug-17 17:33N 54°25' E 011°53'1010.0
2016-Aug-17 16:33N 54°27' E 011°36'1010.2
2016-Aug-17 15:33N 54°32' E 011°21'1010.1
2016-Aug-17 14:33N 54°37' E 011°05'  

Dump ship's entire track history